Time;durP1;ratioP1;P1;durP2;ratioP2;P2;SDS_P1;SDS_P2;PMS_P1;PMS_P2;Temp;Humidity;BMP_temperature;BMP_pressure;BME280_temperature;BME280_humidity;BME280_pressure;Samples;Min_cycle;Max_cycle;Signal;HPM_P1;HPM_P2
2020/12/15 00:00:38;;;;;;;4.57;3.13;;;19.40;68.80;;;;;;5053327;28;20051;-37
2020/12/15 00:03:04;;;;;;;4.45;2.80;;;19.40;68.70;;;;;;5049451;28;20055;-37
2020/12/15 00:05:29;;;;;;;6.10;2.70;;;19.40;68.70;;;;;;5048089;28;20029;-39
2020/12/15 00:07:55;;;;;;;4.65;2.97;;;19.40;69.50;;;;;;5051263;28;20063;-36
2020/12/15 00:10:21;;;;;;;6.28;2.80;;;19.40;68.60;;;;;;5051423;28;20025;-37
2020/12/15 00:12:46;;;;;;;3.15;2.80;;;19.40;68.60;;;;;;5053181;28;20535;-36
2020/12/15 00:15:12;;;;;;;2.95;2.53;;;19.40;68.60;;;;;;5051539;28;20021;-41
2020/12/15 10:05:44;;;;;;;0.82;0.40;;;18.90;70.80;;;;;;5124055;27;20880;-39
2020/12/15 10:08:09;;;;;;;1.60;0.57;;;18.90;71.40;;;;;;5108189;28;20063;-39
2020/12/15 10:10:35;;;;;;;1.63;0.40;;;18.90;71.30;;;;;;5087393;28;20028;-38
2020/12/15 10:13:00;;;;;;;0.90;0.43;;;19.00;71.20;;;;;;5107163;28;20088;-39
2020/12/15 10:15:27;;;;;;;1.25;0.50;;;19.00;71.20;;;;;;5107083;28;20038;-39
2020/12/15 10:17:53;;;;;;;0.52;0.40;;;19.00;71.00;;;;;;5090751;28;20077;-41
2020/12/15 10:20:18;;;;;;;0.57;0.28;;;19.00;70.90;;;;;;5107820;28;20020;-37
2020/12/15 10:22:44;;;;;;;1.20;0.50;;;19.10;70.60;;;;;;5105733;28;20028;-39
2020/12/15 10:25:09;;;;;;;0.65;0.40;;;19.10;70.50;;;;;;5103701;28;20035;-45
2020/12/15 10:27:35;;;;;;;1.58;0.50;;;19.10;70.40;;;;;;5103846;28;20024;-38
2020/12/15 10:30:01;;;;;;;0.88;0.60;;;19.10;70.30;;;;;;5103912;28;20035;-38
2020/12/15 10:32:27;;;;;;;2.53;0.65;;;19.20;70.30;;;;;;5107170;28;20031;-38
2020/12/15 10:34:52;;;;;;;1.95;0.40;;;19.20;70.30;;;;;;5104590;28;20035;-40
2020/12/15 10:37:24;;;;;;;0.75;0.43;;;19.20;70.30;;;;;;5082961;28;20466;-38
2020/12/15 10:39:52;;;;;;;0.95;0.50;;;19.20;70.30;;;;;;5102942;28;20066;-39
2020/12/15 10:42:18;;;;;;;0.95;0.60;;;19.20;70.20;;;;;;5104402;28;20073;-41
2020/12/15 10:44:44;;;;;;;2.42;0.50;;;19.20;70.10;;;;;;5104327;28;20122;-40
2020/12/15 10:47:10;;;;;;;1.30;0.50;;;19.30;70.10;;;;;;5105055;28;20028;-39
2020/12/15 10:49:35;;;;;;;0.60;0.30;;;19.20;70.00;;;;;;5102660;28;20036;-38
2020/12/15 10:52:01;;;;;;;1.27;0.60;;;19.30;70.00;;;;;;5103237;28;20487;-38
2020/12/15 10:54:28;;;;;;;0.50;0.45;;;19.30;69.90;;;;;;5103463;28;20120;-39
2020/12/15 10:56:53;;;;;;;0.85;0.63;;;19.30;69.90;;;;;;5088391;28;20029;-38
2020/12/15 10:59:19;;;;;;;0.75;0.47;;;19.30;69.80;;;;;;5107101;28;20442;-39
2020/12/15 11:01:49;;;;;;;1.55;0.57;;;19.30;69.80;;;;;;5103181;28;20024;-38
2020/12/15 11:04:15;;;;;;;0.55;0.30;;;19.40;69.80;;;;;;5103006;28;20047;-38
2020/12/15 11:06:41;;;;;;;0.90;0.30;;;19.30;69.70;;;;;;5103589;28;20487;-39
2020/12/15 11:09:06;;;;;;;0.85;0.45;;;19.40;69.60;;;;;;5104165;28;20059;-39
2020/12/15 11:11:32;;;;;;;0.68;0.20;;;19.30;69.60;;;;;;5106942;28;20035;-39
2020/12/15 11:13:57;;;;;;;0.80;0.50;;;19.30;69.60;;;;;;5106119;28;20020;-39
2020/12/15 11:16:23;;;;;;;1.98;0.50;;;19.30;69.50;;;;;;5094223;28;20589;-40
2020/12/15 11:18:49;;;;;;;0.40;0.40;;;19.30;69.50;;;;;;5090694;28;20404;-41
2020/12/15 11:21:14;;;;;;;0.57;0.30;;;19.30;69.50;;;;;;5090618;28;20098;-42
2020/12/15 11:23:40;;;;;;;0.80;0.50;;;19.20;69.50;;;;;;5092794;28;20040;-39
2020/12/15 11:26:06;;;;;;;0.55;0.30;;;19.30;69.50;;;;;;4735452;28;9999731;-39
2020/12/15 11:28:31;;;;;;;1.95;0.35;;;19.30;69.60;;;;;;5089771;28;20024;-43
2020/12/15 11:30:57;;;;;;;0.60;0.50;;;19.30;69.40;;;;;;5084990;28;20109;-39
2020/12/15 11:33:23;;;;;;;2.50;0.60;;;19.30;69.50;;;;;;5077856;28;20097;-43
2020/12/15 11:35:50;;;;;;;1.50;0.38;;;19.30;69.40;;;;;;5090811;28;20020;-39
2020/12/15 11:38:17;;;;;;;0.68;0.50;;;19.30;69.20;;;;;;5092933;28;20113;-40
2020/12/15 11:40:43;;;;;;;1.83;0.68;;;19.30;69.10;;;;;;5088164;28;20051;-40
2020/12/15 11:43:09;;;;;;;0.75;0.40;;;19.40;69.20;;;;;;5086415;28;20063;-39
2020/12/15 11:45:34;;;;;;;4.50;0.50;;;19.40;69.20;;;;;;5070956;28;20043;-40
2020/12/15 11:48:00;;;;;;;3.42;0.82;;;19.40;69.10;;;;;;5088623;28;20035;-38
2020/12/15 11:50:28;;;;;;;1.35;0.40;;;19.40;69.30;;;;;;5092257;28;20088;-44
2020/12/15 11:52:55;;;;;;;2.13;0.60;;;19.40;69.20;;;;;;5086822;28;20043;-42
2020/12/15 11:55:22;;;;;;;0.90;0.50;;;19.40;69.50;;;;;;5086100;28;20032;-38
2020/12/15 11:57:49;;;;;;;5.47;0.70;;;19.40;70.40;;;;;;5086130;28;20119;-38
2020/12/15 12:00:15;;;;;;;5.85;0.60;;;19.40;69.60;;;;;;5070024;28;20016;-38
2020/12/15 12:02:41;;;;;;;2.35;0.60;;;19.40;69.60;;;;;;5088016;28;20039;-39
2020/12/15 12:05:06;;;;;;;1.92;0.52;;;19.40;69.60;;;;;;5088101;28;20135;-38
2020/12/15 12:07:32;;;;;;;2.58;0.47;;;19.50;69.70;;;;;;5086073;28;20107;-40
2020/12/15 12:09:57;;;;;;;2.55;0.40;;;19.50;69.70;;;;;;5086064;28;20470;-38
2020/12/15 12:12:23;;;;;;;4.40;0.60;;;19.50;69.80;;;;;;5085277;28;20028;-39
2020/12/15 12:14:48;;;;;;;1.27;0.68;;;19.50;69.70;;;;;;5086572;28;20495;-39
2020/12/15 12:17:14;;;;;;;2.22;0.43;;;19.50;69.60;;;;;;5088750;28;20063;-38
2020/12/15 12:19:40;;;;;;;0.52;0.40;;;19.50;69.60;;;;;;5085644;28;20058;-39
2020/12/15 12:22:05;;;;;;;2.33;0.55;;;19.50;69.60;;;;;;5088087;28;20035;-38
2020/12/15 12:24:31;;;;;;;2.65;0.60;;;19.50;69.50;;;;;;5066941;28;20040;-38
2020/12/15 12:26:58;;;;;;;3.13;0.40;;;19.50;69.50;;;;;;5086202;28;20639;-40
2020/12/15 12:29:24;;;;;;;2.55;0.40;;;19.60;69.50;;;;;;5092099;28;20125;-39
2020/12/15 12:31:50;;;;;;;0.82;0.50;;;19.60;69.50;;;;;;5086189;28;20659;-38
2020/12/15 12:34:15;;;;;;;1.80;0.40;;;19.60;69.40;;;;;;5089076;28;20079;-39
2020/12/15 12:36:41;;;;;;;3.13;0.30;;;19.60;69.30;;;;;;5088477;28;20028;-39
2020/12/15 12:39:07;;;;;;;4.75;1.20;;;19.60;69.30;;;;;;5088201;28;20043;-39
2020/12/15 12:41:32;;;;;;;4.47;0.40;;;19.60;69.20;;;;;;5090579;28;20417;-42
2020/12/15 12:43:58;;;;;;;2.40;0.32;;;19.60;69.30;;;;;;5089654;28;20107;-39
2020/12/15 12:46:23;;;;;;;4.72;0.50;;;19.60;69.30;;;;;;5089049;28;20414;-37
2020/12/15 12:48:49;;;;;;;0.90;0.40;;;19.60;69.30;;;;;;5088127;28;20403;-37
2020/12/15 12:53:21;;;;;;;5.93;0.40;;;19.60;69.40;;;;;;4945267;28;63696;-38
2020/12/15 12:55:46;;;;;;;2.55;0.30;;;19.60;69.20;;;;;;5037950;28;20091;-39
2020/12/15 12:58:12;;;;;;;4.10;0.60;;;19.60;69.20;;;;;;5000605;28;81806;-39
2020/12/15 13:00:38;;;;;;;7.38;1.00;;;19.60;69.30;;;;;;5006356;28;20057;-45
2020/12/15 13:03:03;;;;;;;1.00;0.60;;;19.60;69.20;;;;;;5041454;28;20398;-39
2020/12/15 13:05:29;;;;;;;0.80;0.40;;;19.60;69.10;;;;;;5055862;28;20123;-40
2020/12/15 13:07:54;;;;;;;0.77;0.35;;;19.60;69.10;;;;;;5041354;28;20500;-39
2020/12/15 13:10:20;;;;;;;1.92;0.40;;;19.70;69.20;;;;;;5035816;28;20048;-40
2020/12/15 13:12:45;;;;;;;5.13;0.47;;;19.60;69.10;;;;;;5041096;28;20033;-41
2020/12/15 13:15:11;;;;;;;0.88;0.38;;;19.70;69.10;;;;;;5038802;28;20042;-38
2020/12/15 13:17:37;;;;;;;0.30;0.30;;;19.70;68.90;;;;;;5040320;28;20060;-46
2020/12/15 13:20:05;;;;;;;4.88;0.68;;;19.70;68.90;;;;;;5045178;28;20033;-40
2020/12/15 13:22:32;;;;;;;2.20;0.50;;;19.70;68.80;;;;;;5042826;28;20136;-40
2020/12/15 13:25:00;;;;;;;0.70;0.30;;;19.70;68.60;;;;;;5040292;28;20504;-40
2020/12/15 13:27:25;;;;;;;5.15;0.65;;;19.80;68.60;;;;;;5038926;28;20041;-40
2020/12/15 13:29:51;;;;;;;1.27;0.40;;;19.70;68.50;;;;;;5050963;28;20041;-40
2020/12/15 13:32:16;;;;;;;3.55;0.50;;;19.70;68.40;;;;;;5056584;28;20048;-39
2020/12/15 13:34:44;;;;;;;1.02;0.55;;;19.80;68.40;;;;;;5043687;28;20069;-42
2020/12/15 13:37:10;;;;;;;1.17;0.40;;;19.80;68.40;;;;;;5040283;28;20048;-40
2020/12/15 13:39:36;;;;;;;1.23;0.50;;;19.70;68.40;;;;;;5030118;28;20352;-38
2020/12/15 13:42:03;;;;;;;0.77;0.35;;;19.70;68.40;;;;;;5018509;28;20535;-39
2020/12/15 13:44:28;;;;;;;1.15;0.40;;;19.80;68.40;;;;;;5041217;28;20076;-39
2020/12/15 13:46:54;;;;;;;0.75;0.60;;;19.70;68.30;;;;;;5044029;28;20041;-40
2020/12/15 13:49:20;;;;;;;0.77;0.40;;;19.70;68.20;;;;;;5029049;28;20119;-39
2020/12/15 13:51:46;;;;;;;0.40;0.30;;;19.70;68.10;;;;;;5040196;28;20058;-39
2020/12/15 13:54:12;;;;;;;1.75;0.40;;;19.70;68.20;;;;;;5034598;28;20041;-39
2020/12/15 13:56:40;;;;;;;0.32;0.32;;;19.70;68.20;;;;;;5041280;28;20047;-39
2020/12/15 13:59:05;;;;;;;0.30;0.22;;;19.70;68.20;;;;;;5029840;28;20096;-39
2020/12/15 14:01:31;;;;;;;1.88;0.35;;;19.70;68.90;;;;;;5034329;28;20037;-37
2020/12/15 14:03:56;;;;;;;1.05;0.30;;;19.70;68.10;;;;;;5029575;28;20052;-39
2020/12/15 14:06:22;;;;;;;1.30;0.40;;;19.70;68.10;;;;;;5028026;28;20124;-40
2020/12/15 14:08:48;;;;;;;0.73;0.55;;;19.70;68.80;;;;;;5024258;28;20042;-40
2020/12/15 14:11:16;;;;;;;0.40;0.30;;;19.70;68.10;;;;;;5021547;28;20046;-40
2020/12/15 14:13:45;;;;;;;0.47;0.20;;;19.70;68.00;;;;;;5024533;28;20045;-41
2020/12/15 14:16:10;;;;;;;0.43;0.20;;;19.70;68.00;;;;;;5028877;28;20045;-38
2020/12/15 14:18:37;;;;;;;0.88;0.40;;;19.70;68.00;;;;;;5027040;28;20471;-38
2020/12/15 14:21:04;;;;;;;0.80;0.40;;;19.70;68.00;;;;;;5012617;28;20038;-43
2020/12/15 14:23:32;;;;;;;1.00;0.30;;;19.60;68.10;;;;;;5011763;28;20049;-39
2020/12/15 14:26:06;;;;;;;1.13;0.50;;;19.60;68.10;;;;;;5022958;28;20515;-48
2020/12/15 14:28:32;;;;;;;0.20;0.15;;;19.60;68.00;;;;;;5031165;28;20041;-40
2020/12/15 14:30:58;;;;;;;1.10;0.30;;;19.60;68.00;;;;;;5026946;28;20025;-39
2020/12/15 14:33:24;;;;;;;0.93;0.38;;;19.60;67.90;;;;;;5029024;28;20045;-39
2020/12/15 14:35:49;;;;;;;0.95;0.40;;;19.60;68.70;;;;;;5025277;28;20407;-44
2020/12/15 14:38:15;;;;;;;0.80;0.38;;;19.60;67.80;;;;;;5029008;28;20053;-41
2020/12/15 14:40:41;;;;;;;0.43;0.30;;;19.60;68.00;;;;;;5026195;28;20501;-41
2020/12/15 14:43:06;;;;;;;1.85;0.40;;;19.60;68.00;;;;;;5021865;28;20113;-45
2020/12/15 14:45:32;;;;;;;2.50;0.30;;;19.50;68.00;;;;;;5032046;28;20049;-37
2020/12/15 14:47:57;;;;;;;3.72;0.30;;;19.50;68.10;;;;;;5026985;28;20553;-37
2020/12/15 14:50:23;;;;;;;1.25;0.20;;;19.50;68.00;;;;;;5029372;28;20100;-39
2020/12/15 14:52:48;;;;;;;2.72;0.20;;;19.50;68.00;;;;;;5028571;28;20056;-38
2020/12/15 14:55:14;;;;;;;0.63;0.30;;;19.50;68.00;;;;;;5026262;28;20053;-40
2020/12/15 14:57:40;;;;;;;1.17;0.40;;;19.50;68.10;;;;;;5030265;28;20067;-39
2020/12/15 15:00:05;;;;;;;1.10;0.35;;;19.50;68.10;;;;;;5025013;28;20121;-40
2020/12/15 15:02:31;;;;;;;0.85;0.30;;;19.50;68.20;;;;;;5028444;28;20558;-40
2020/12/15 15:04:57;;;;;;;1.15;0.60;;;19.50;68.20;;;;;;5030185;28;20045;-39
2020/12/15 15:07:24;;;;;;;2.63;0.50;;;19.50;68.30;;;;;;5028137;28;20041;-38
2020/12/15 15:09:50;;;;;;;1.75;0.20;;;19.50;68.20;;;;;;4676917;28;10000631;-41
2020/12/15 15:12:16;;;;;;;1.15;0.60;;;19.50;68.20;;;;;;4676981;28;9999816;-39
2020/12/15 15:14:42;;;;;;;2.58;0.43;;;19.50;68.20;;;;;;5023581;28;20079;-39
2020/12/15 15:17:07;;;;;;;1.55;0.47;;;19.40;68.40;;;;;;5023697;28;20045;-38
2020/12/15 15:19:33;;;;;;;1.85;0.40;;;19.40;68.50;;;;;;5024354;28;20061;-39
2020/12/15 15:21:58;;;;;;;4.18;0.40;;;19.40;68.60;;;;;;5021198;28;21746;-38
2020/12/15 15:24:24;;;;;;;1.02;0.35;;;19.40;68.70;;;;;;5026399;28;20044;-39
2020/12/15 15:26:49;;;;;;;5.10;0.60;;;19.40;68.60;;;;;;5032287;28;20069;-39
2020/12/15 15:29:15;;;;;;;4.53;0.45;;;19.40;68.60;;;;;;5028105;28;20045;-39
2020/12/15 15:31:41;;;;;;;0.70;0.30;;;19.40;68.60;;;;;;5023773;28;20413;-40
2020/12/15 15:34:06;;;;;;;3.50;0.40;;;19.40;68.70;;;;;;5025140;28;20145;-40
2020/12/15 15:36:33;;;;;;;0.70;0.25;;;19.40;68.60;;;;;;5024735;28;20050;-39
2020/12/15 15:39:19;;;;;;;4.82;0.30;;;19.40;68.40;;;;;;5026420;28;20038;-39
2020/12/15 15:41:46;;;;;;;2.05;0.52;;;19.40;68.60;;;;;;5024852;28;20096;-40
2020/12/15 15:44:11;;;;;;;5.10;0.40;;;19.40;68.50;;;;;;5028543;28;20025;-40
2020/12/15 15:46:37;;;;;;;2.63;0.22;;;19.40;68.40;;;;;;5028301;28;20511;-40
2020/12/15 15:49:03;;;;;;;1.58;0.30;;;19.40;68.50;;;;;;5026961;28;20084;-48
2020/12/15 15:51:29;;;;;;;2.05;0.38;;;19.40;68.50;;;;;;5032623;28;20053;-41
2020/12/15 15:53:54;;;;;;;5.53;0.55;;;19.40;68.60;;;;;;5028216;28;20445;-40
2020/12/15 15:56:20;;;;;;;5.93;0.52;;;19.40;68.80;;;;;;5025228;28;20037;-40
2020/12/15 15:58:45;;;;;;;0.80;0.30;;;19.40;68.90;;;;;;5028454;28;20141;-38
2020/12/15 16:01:11;;;;;;;2.45;0.30;;;19.40;68.90;;;;;;5024140;28;20045;-42
2020/12/15 16:03:37;;;;;;;1.00;0.30;;;19.40;69.00;;;;;;5027142;28;20030;-40
2020/12/15 16:06:02;;;;;;;3.28;0.40;;;19.40;69.00;;;;;;5020661;28;20064;-41
2020/12/15 16:08:28;;;;;;;3.45;0.40;;;19.40;69.00;;;;;;5027920;28;20037;-51
2020/12/15 16:10:57;;;;;;;1.38;0.40;;;19.40;68.90;;;;;;5029979;28;20547;-43
2020/12/15 16:13:27;;;;;;;0.98;0.30;;;19.40;69.00;;;;;;5027642;28;20063;-39
2020/12/15 16:15:53;;;;;;;1.33;0.20;;;19.40;69.10;;;;;;5032080;28;20553;-39
2020/12/15 16:18:19;;;;;;;3.30;0.20;;;19.40;69.20;;;;;;5034820;28;20124;-39
2020/12/15 16:20:45;;;;;;;7.70;0.45;;;19.40;69.20;;;;;;5035488;28;20123;-39
2020/12/15 16:23:11;;;;;;;5.47;0.40;;;19.40;69.20;;;;;;5037627;28;20025;-43
2020/12/15 16:25:36;;;;;;;5.47;0.40;;;19.40;69.10;;;;;;5027134;28;20514;-44
2020/12/15 16:28:02;;;;;;;2.17;0.30;;;19.40;69.00;;;;;;5031030;28;20534;-44
2020/12/15 16:30:28;;;;;;;3.47;0.50;;;19.40;68.90;;;;;;5026450;28;20092;-46
2020/12/15 16:32:56;;;;;;;8.00;0.60;;;19.40;69.00;;;;;;5042565;28;20042;-43
2020/12/15 16:35:22;;;;;;;2.33;0.30;;;19.40;69.10;;;;;;5044170;28;20077;-46
2020/12/15 16:37:47;;;;;;;3.67;0.50;;;19.40;69.20;;;;;;5038689;28;20029;-47
2020/12/15 16:40:13;;;;;;;46.83;28.88;;;19.40;69.10;;;;;;5037300;28;20025;-47
2020/12/15 16:42:38;;;;;;;26.55;15.70;;;19.40;69.00;;;;;;5039174;28;20029;-44
2020/12/15 16:45:04;;;;;;;8.65;6.10;;;19.40;68.90;;;;;;5039385;28;20465;-45
2020/12/15 16:47:30;;;;;;;7.97;5.80;;;19.40;68.80;;;;;;5039833;28;20025;-45
2020/12/15 16:49:55;;;;;;;7.40;5.53;;;19.40;68.70;;;;;;5032138;28;20461;-47
2020/12/15 16:52:21;;;;;;;23.65;7.57;;;19.40;68.80;;;;;;5032270;28;20087;-49
2020/12/15 16:54:46;;;;;;;10.45;6.07;;;19.40;68.60;;;;;;5038488;28;20051;-51
2020/12/15 16:57:12;;;;;;;15.40;6.55;;;19.40;68.60;;;;;;5041337;28;20029;-46
2020/12/15 16:59:37;;;;;;;10.82;6.13;;;19.50;68.70;;;;;;5036264;28;20120;-45
2020/12/15 17:02:10;;;;;;;16.20;6.40;;;19.50;68.60;;;;;;5033576;28;20026;-49
2020/12/15 17:04:36;;;;;;;10.85;5.72;;;19.50;68.60;;;;;;5036535;28;20135;-45
2020/12/15 17:07:02;;;;;;;9.38;6.72;;;19.50;68.60;;;;;;5036638;28;20108;-46
2020/12/15 17:09:27;;;;;;;7.15;6.28;;;19.50;68.60;;;;;;5038511;28;20036;-45
2020/12/15 17:11:53;;;;;;;10.30;6.22;;;19.50;68.60;;;;;;5033796;28;20100;-46
2020/12/15 17:14:18;;;;;;;9.15;5.60;;;19.50;68.50;;;;;;5025548;28;20033;-47
2020/12/15 17:16:44;;;;;;;13.45;5.88;;;19.50;68.60;;;;;;5032877;28;20044;-46
2020/12/15 17:19:10;;;;;;;8.45;5.38;;;19.50;68.60;;;;;;5033220;28;20096;-46
2020/12/15 17:21:36;;;;;;;11.07;4.82;;;19.50;68.60;;;;;;5036247;28;20060;-47
2020/12/15 17:24:02;;;;;;;7.45;4.53;;;19.60;68.60;;;;;;5039969;28;20087;-46
2020/12/15 17:26:28;;;;;;;9.32;5.07;;;19.50;68.50;;;;;;5047478;28;20033;-46
2020/12/15 17:28:54;;;;;;;9.60;4.90;;;19.50;68.50;;;;;;5038115;28;20026;-45
2020/12/15 17:31:21;;;;;;;7.60;4.68;;;19.50;68.50;;;;;;5030960;28;20040;-51
2020/12/15 17:33:46;;;;;;;6.65;4.35;;;19.50;68.60;;;;;;5027634;28;20037;-39
2020/12/15 17:36:15;;;;;;;10.63;5.03;;;19.60;68.70;;;;;;5037910;28;20081;-40
2020/12/15 17:38:43;;;;;;;10.40;3.72;;;19.60;68.60;;;;;;5042618;28;20112;-41
2020/12/15 17:41:10;;;;;;;7.85;3.58;;;19.60;68.70;;;;;;5036772;28;20037;-39
2020/12/15 17:43:35;;;;;;;6.28;4.20;;;19.60;68.70;;;;;;5040349;28;20049;-39
2020/12/15 17:46:01;;;;;;;7.00;4.57;;;19.60;68.70;;;;;;5033905;28;20092;-39
2020/12/15 17:48:26;;;;;;;5.97;3.88;;;19.60;68.70;;;;;;5040066;28;20036;-40
2020/12/15 17:50:52;;;;;;;5.97;3.50;;;19.60;68.70;;;;;;5035616;28;20018;-39
2020/12/15 17:53:17;;;;;;;3.60;3.30;;;19.60;68.60;;;;;;5040511;28;20530;-40
2020/12/15 17:55:43;;;;;;;6.72;3.28;;;19.60;68.60;;;;;;5027820;28;20025;-38
2020/12/15 17:58:08;;;;;;;4.72;3.85;;;19.60;68.40;;;;;;5028241;28;20047;-38
2020/12/15 18:00:34;;;;;;;4.25;3.65;;;19.60;68.50;;;;;;5027921;28;20121;-38
2020/12/15 18:03:00;;;;;;;7.00;3.60;;;19.60;68.60;;;;;;5036218;28;20025;-39
2020/12/15 18:05:26;;;;;;;4.70;3.53;;;19.60;68.70;;;;;;5033102;28;20032;-39
2020/12/15 18:07:51;;;;;;;5.75;3.50;;;19.60;68.60;;;;;;5037286;28;20036;-45
2020/12/15 18:10:17;;;;;;;3.63;3.33;;;19.60;68.50;;;;;;5036639;28;20037;-40
2020/12/15 18:12:44;;;;;;;4.18;3.80;;;19.60;68.40;;;;;;5036875;28;20457;-39
2020/12/15 18:15:09;;;;;;;5.30;3.10;;;19.60;68.40;;;;;;5036025;28;20409;-39
2020/12/15 18:17:35;;;;;;;4.72;3.28;;;19.60;68.30;;;;;;5034628;28;20033;-38
2020/12/15 18:20:00;;;;;;;3.97;3.10;;;19.60;68.40;;;;;;5029596;28;20024;-39
2020/12/15 18:22:26;;;;;;;5.35;3.08;;;19.60;68.10;;;;;;5038816;28;20029;-44
2020/12/15 18:24:52;;;;;;;5.07;3.50;;;19.60;68.00;;;;;;5041723;28;20029;-40
2020/12/15 18:27:17;;;;;;;7.22;5.18;;;19.60;67.70;;;;;;5035512;28;20517;-41
2020/12/15 18:29:43;;;;;;;10.80;4.90;;;19.60;67.60;;;;;;5031626;28;20062;-39
2020/12/15 18:32:08;;;;;;;9.35;4.97;;;19.70;67.60;;;;;;5044121;28;20103;-40
2020/12/15 18:34:34;;;;;;;4.70;4.22;;;19.70;67.50;;;;;;5044518;28;20773;-45
2020/12/15 18:37:00;;;;;;;5.53;4.43;;;19.70;67.50;;;;;;5043878;28;20102;-44
2020/12/15 18:39:25;;;;;;;4.93;3.58;;;19.60;67.30;;;;;;5039333;28;20025;-49
2020/12/15 18:41:51;;;;;;;4.05;3.70;;;19.70;67.40;;;;;;5029194;28;20025;-40
2020/12/15 18:44:16;;;;;;;3.50;3.20;;;19.60;67.50;;;;;;5034169;28;20449;-52
2020/12/15 18:46:42;;;;;;;6.68;4.22;;;19.60;67.40;;;;;;5034442;28;20040;-40
2020/12/15 18:49:09;;;;;;;8.38;4.32;;;19.60;67.50;;;;;;5033531;28;20439;-44
2020/12/15 18:51:34;;;;;;;6.68;4.95;;;19.60;68.10;;;;;;5027818;28;20049;-40
2020/12/15 18:54:00;;;;;;;8.27;4.40;;;19.60;68.10;;;;;;5033216;28;20447;-40
2020/12/15 18:56:26;;;;;;;9.88;4.65;;;19.60;68.20;;;;;;5039415;28;20028;-39
2020/12/15 18:58:51;;;;;;;7.07;4.88;;;19.60;68.40;;;;;;5029301;28;20440;-40
2020/12/15 19:01:17;;;;;;;8.55;4.80;;;19.60;68.40;;;;;;5035758;28;20029;-49
2020/12/15 19:03:42;;;;;;;6.82;5.70;;;19.60;68.50;;;;;;5035697;28;20032;-38
2020/12/15 19:06:08;;;;;;;7.20;6.22;;;19.60;68.70;;;;;;5031503;28;20029;-40
2020/12/15 19:08:33;;;;;;;9.43;6.13;;;19.60;68.50;;;;;;5035266;28;20025;-40
2020/12/15 19:10:59;;;;;;;6.78;5.63;;;19.60;68.40;;;;;;5029357;28;20056;-43
2020/12/15 19:13:25;;;;;;;5.97;4.95;;;19.70;68.30;;;;;;5027911;28;20472;-41
2020/12/15 19:15:51;;;;;;;8.93;4.75;;;19.70;68.30;;;;;;5027001;28;20037;-43
2020/12/15 19:18:17;;;;;;;6.75;5.00;;;19.70;68.20;;;;;;5032452;28;20158;-42
2020/12/15 19:20:42;;;;;;;6.69;4.18;;;19.70;68.20;;;;;;4685240;28;10000648;-40
2020/12/15 19:23:08;;;;;;;9.20;4.55;;;19.70;68.90;;;;;;5025795;28;20122;-39
2020/12/15 19:25:33;;;;;;;4.82;4.03;;;19.70;68.10;;;;;;5035540;28;20071;-38
2020/12/15 19:27:59;;;;;;;8.90;3.90;;;19.80;68.10;;;;;;5038459;28;20036;-39
2020/12/15 19:30:24;;;;;;;6.60;3.60;;;19.70;68.00;;;;;;5038114;28;20511;-44
2020/12/15 19:32:51;;;;;;;5.18;4.30;;;19.80;68.10;;;;;;5026872;28;20038;-39
2020/12/15 19:35:16;;;;;;;5.30;4.10;;;19.70;68.00;;;;;;5031483;28;20080;-40
2020/12/15 19:37:42;;;;;;;4.68;4.20;;;19.70;68.00;;;;;;5036946;28;20115;-40
2020/12/15 19:40:08;;;;;;;3.78;3.50;;;19.70;68.00;;;;;;5036095;28;20451;-43
2020/12/15 19:42:34;;;;;;;7.00;4.43;;;19.70;67.90;;;;;;5033646;28;20025;-41
2020/12/15 19:45:00;;;;;;;4.43;3.53;;;19.70;68.00;;;;;;5032152;28;20519;-38
2020/12/15 19:47:25;;;;;;;7.93;4.00;;;19.70;68.00;;;;;;5033874;28;20033;-43
2020/12/15 19:49:51;;;;;;;3.47;3.17;;;19.70;68.00;;;;;;5035262;28;20021;-43
2020/12/15 19:52:17;;;;;;;5.05;3.65;;;19.70;68.00;;;;;;5040418;28;20111;-41
2020/12/15 19:54:42;;;;;;;5.20;4.03;;;19.70;68.00;;;;;;5036606;28;20116;-41
2020/12/15 19:57:08;;;;;;;4.57;3.88;;;19.70;68.00;;;;;;5029272;28;20099;-43
2020/12/15 19:59:34;;;;;;;5.47;3.17;;;19.70;68.00;;;;;;5028900;28;20634;-48
2020/12/15 20:02:05;;;;;;;5.60;3.40;;;19.70;68.00;;;;;;5028182;28;20552;-40
2020/12/15 20:04:31;;;;;;;3.80;3.55;;;19.70;68.00;;;;;;5029968;28;20119;-41
2020/12/15 20:06:57;;;;;;;7.63;3.17;;;19.70;67.90;;;;;;5017773;28;21598;-42
2020/12/15 20:09:23;;;;;;;4.10;3.67;;;19.70;67.90;;;;;;5032596;28;20030;-41
2020/12/15 20:11:48;;;;;;;4.13;3.08;;;19.70;67.70;;;;;;5027926;28;20504;-43
2020/12/15 20:14:14;;;;;;;3.22;2.88;;;19.80;67.70;;;;;;5038437;28;20492;-50
2020/12/15 20:16:39;;;;;;;5.05;2.53;;;19.80;67.70;;;;;;5035288;28;20051;-44
2020/12/15 20:19:05;;;;;;;4.80;2.63;;;19.70;67.60;;;;;;5028977;28;20113;-40
2020/12/15 20:21:30;;;;;;;7.32;3.15;;;19.70;67.70;;;;;;5031259;28;20481;-45
2020/12/15 20:23:56;;;;;;;5.25;4.20;;;19.70;68.10;;;;;;5031238;28;20082;-41
2020/12/15 20:26:22;;;;;;;6.43;3.53;;;19.70;68.30;;;;;;5029782;28;20125;-50
2020/12/15 20:28:48;;;;;;;6.13;3.33;;;19.70;68.30;;;;;;5027112;28;20060;-42
2020/12/15 20:31:20;;;;;;;5.88;3.20;;;19.60;69.10;;;;;;4681682;28;10000192;-38
2020/12/15 20:33:47;;;;;;;5.45;3.28;;;19.70;68.30;;;;;;5021189;28;20064;-44
2020/12/15 20:36:12;;;;;;;6.38;2.92;;;19.70;68.20;;;;;;5024956;28;20124;-45
2020/12/15 20:38:38;;;;;;;5.93;2.80;;;19.70;68.20;;;;;;5028583;28;20052;-38
2020/12/15 20:41:04;;;;;;;4.35;3.00;;;19.70;68.20;;;;;;5034111;28;20075;-42
2020/12/15 20:43:29;;;;;;;4.97;2.67;;;19.70;68.10;;;;;;5032155;28;20026;-42
2020/12/15 20:45:55;;;;;;;6.88;2.38;;;19.70;68.10;;;;;;5030659;28;20045;-38
2020/12/15 20:48:23;;;;;;;6.30;2.75;;;19.60;68.10;;;;;;5030669;28;20025;-41
2020/12/15 20:50:49;;;;;;;3.45;3.00;;;19.70;68.10;;;;;;5031460;28;20076;-39
2020/12/15 20:53:15;;;;;;;3.35;2.88;;;19.70;68.10;;;;;;5038425;28;20055;-43
2020/12/15 20:55:41;;;;;;;2.60;2.40;;;19.70;68.10;;;;;;5030196;28;20112;-40
2020/12/15 20:58:07;;;;;;;4.28;2.90;;;19.70;68.20;;;;;;5032758;28;20044;-41
2020/12/15 21:00:33;;;;;;;4.32;2.75;;;19.60;68.10;;;;;;5027034;28;20084;-41
2020/12/15 21:02:59;;;;;;;3.10;2.60;;;19.60;68.10;;;;;;5026892;28;20034;-41
2020/12/15 21:05:24;;;;;;;3.75;2.22;;;19.60;68.20;;;;;;5024037;28;20087;-44
2020/12/15 21:07:50;;;;;;;3.35;2.67;;;19.60;68.10;;;;;;5027775;28;20030;-45
2020/12/15 21:10:19;;;;;;;6.25;2.78;;;19.60;68.10;;;;;;5028901;28;20025;-44
2020/12/15 21:12:44;;;;;;;2.50;2.28;;;19.60;68.10;;;;;;5029538;28;20117;-40
2020/12/15 21:15:10;;;;;;;2.97;2.20;;;19.60;68.00;;;;;;5027111;28;20091;-38
2020/12/15 21:17:35;;;;;;;5.70;2.30;;;19.60;68.10;;;;;;5024291;28;20037;-45
2020/12/15 21:20:01;;;;;;;2.40;2.20;;;19.60;68.10;;;;;;5024898;28;20444;-51
2020/12/15 21:22:27;;;;;;;3.10;2.50;;;19.60;68.00;;;;;;5024757;28;20124;-43
2020/12/15 21:24:52;;;;;;;3.80;2.25;;;19.60;68.10;;;;;;5023166;28;20029;-41
2020/12/15 21:27:18;;;;;;;2.78;2.30;;;19.60;68.00;;;;;;5022661;28;20076;-41
2020/12/15 21:29:44;;;;;;;2.38;2.08;;;19.60;68.10;;;;;;5022617;28;20030;-44
2020/12/15 21:32:10;;;;;;;3.78;2.03;;;19.60;68.00;;;;;;5025477;28;20045;-40
2020/12/15 21:34:36;;;;;;;2.13;1.88;;;19.60;68.00;;;;;;5025016;28;20029;-40
2020/12/15 21:37:01;;;;;;;1.80;1.70;;;19.60;67.90;;;;;;5027730;28;20033;-40
2020/12/15 21:39:27;;;;;;;2.55;2.17;;;19.60;67.90;;;;;;5036172;28;20032;-44
2020/12/15 21:41:57;;;;;;;2.13;1.70;;;19.60;68.00;;;;;;5026933;28;20030;-44
2020/12/15 21:44:23;;;;;;;2.65;1.70;;;19.60;67.90;;;;;;5026312;28;20021;-40
2020/12/15 21:46:52;;;;;;;4.68;2.20;;;19.60;67.80;;;;;;5023885;28;20087;-40
2020/12/15 21:49:19;;;;;;;2.25;1.80;;;19.60;67.80;;;;;;5025634;28;20132;-41
2020/12/15 21:51:44;;;;;;;3.75;1.88;;;19.60;67.70;;;;;;5031399;28;20241;-40
2020/12/15 21:54:12;;;;;;;4.53;1.67;;;19.60;67.60;;;;;;5042237;28;20025;-39
2020/12/15 21:56:38;;;;;;;1.60;1.50;;;19.60;67.60;;;;;;5039491;28;20025;-39
2020/12/15 21:59:07;;;;;;;1.70;1.58;;;19.60;67.60;;;;;;5040719;28;20030;-39
2020/12/15 22:01:32;;;;;;;1.90;1.55;;;19.60;67.60;;;;;;5034056;28;20044;-39
2020/12/15 22:03:58;;;;;;;2.05;1.85;;;19.60;67.60;;;;;;5035688;28;20025;-39
2020/12/15 22:06:24;;;;;;;1.63;1.52;;;19.60;67.60;;;;;;5026574;28;20037;-51
2020/12/15 22:08:50;;;;;;;3.25;2.15;;;19.60;67.60;;;;;;5032354;28;20427;-39
2020/12/15 22:11:17;;;;;;;2.15;1.80;;;19.60;67.70;;;;;;5042877;28;20058;-40
2020/12/15 22:13:43;;;;;;;1.73;1.50;;;19.60;67.70;;;;;;5037145;28;20033;-39
2020/12/15 22:16:08;;;;;;;2.58;1.70;;;19.50;67.70;;;;;;5032184;28;20067;-46
2020/12/15 22:18:34;;;;;;;1.73;1.60;;;19.60;67.70;;;;;;5036942;28;20484;-39
2020/12/15 22:20:59;;;;;;;4.40;1.40;;;19.50;67.70;;;;;;5033423;28;20056;-39
2020/12/15 22:23:25;;;;;;;1.70;1.40;;;19.50;67.70;;;;;;5046552;28;20431;-40
2020/12/15 22:25:50;;;;;;;4.00;1.70;;;19.50;67.70;;;;;;5041572;28;20033;-39
2020/12/15 22:28:16;;;;;;;3.05;1.88;;;19.50;67.70;;;;;;5036859;28;20025;-41